Time;durP1;ratioP1;P1;durP2;ratioP2;P2;SDS_P1;SDS_P2;PMS_P1;PMS_P2;Temp;Humidity;BMP_temperature;BMP_pressure;BME280_temperature;BME280_humidity;BME280_pressure;Samples;Min_cycle;Max_cycle;Signal;HPM_P1;HPM_P2
2022/03/20 00:02:47;;;;;;;583.23;529.83;;;;;;;;;;;;;-56
2022/03/20 00:05:47;;;;;;;582.93;529.60;;;;;;;;;;;;;-57
2022/03/20 00:08:48;;;;;;;579.47;526.39;;;;;;;;;;;;;-57
2022/03/20 00:11:47;;;;;;;577.99;524.93;;;;;;;;;;;;;-57
2022/03/20 00:14:48;;;;;;;577.21;524.06;;;;;;;;;;;;;-57
2022/03/20 00:17:49;;;;;;;573.64;520.67;;;;;;;;;;;;;-56
2022/03/20 00:20:47;;;;;;;579.31;526.11;;;;;;;;;;;;;-52
2022/03/20 00:23:48;;;;;;;581.53;528.20;;;;;;;;;;;;;-51
2022/03/20 00:26:52;;;;;;;574.51;521.53;;;;;;;;;;;;;-53
2022/03/20 00:29:48;;;;;;;572.83;519.89;;;;;;;;;;;;;-53
2022/03/20 00:32:47;;;;;;;573.09;520.29;;;;;;;;;;;;;-53
2022/03/20 00:35:48;;;;;;;578.15;524.95;;;;;;;;;;;;;-53
2022/03/20 00:38:48;;;;;;;570.79;517.97;;;;;;;;;;;;;-53
2022/03/20 00:41:47;;;;;;;566.29;513.65;;;;;;;;;;;;;-54
2022/03/20 00:44:47;;;;;;;571.35;518.51;;;;;;;;;;;;;-51
2022/03/20 00:47:48;;;;;;;573.49;520.47;;;;;;;;;;;;;-51
2022/03/20 00:50:48;;;;;;;577.34;524.29;;;;;;;;;;;;;-51
2022/03/20 00:53:47;;;;;;;570.65;517.93;;;;;;;;;;;;;-51
2022/03/20 00:56:48;;;;;;;573.55;520.70;;;;;;;;;;;;;-52
2022/03/20 00:59:48;;;;;;;573.15;520.20;;;;;;;;;;;;;-52
2022/03/20 01:02:47;;;;;;;570.85;518.09;;;;;;;;;;;;;-51
2022/03/20 01:05:48;;;;;;;570.13;517.28;;;;;;;;;;;;;-60
2022/03/20 01:08:48;;;;;;;570.97;518.10;;;;;;;;;;;;;-59
2022/03/20 01:11:48;;;;;;;577.68;524.43;;;;;;;;;;;;;-51
2022/03/20 01:14:47;;;;;;;575.68;522.65;;;;;;;;;;;;;-51
2022/03/20 01:17:47;;;;;;;577.01;523.75;;;;;;;;;;;;;-52
2022/03/20 01:20:48;;;;;;;574.62;521.67;;;;;;;;;;;;;-51
2022/03/20 01:23:48;;;;;;;576.87;523.75;;;;;;;;;;;;;-60
2022/03/20 01:26:47;;;;;;;573.21;520.17;;;;;;;;;;;;;-53
2022/03/20 01:29:48;;;;;;;578.23;524.99;;;;;;;;;;;;;-53
2022/03/20 01:32:48;;;;;;;578.23;525.05;;;;;;;;;;;;;-54
2022/03/20 01:35:47;;;;;;;575.87;522.72;;;;;;;;;;;;;-60
2022/03/20 01:38:47;;;;;;;574.52;521.49;;;;;;;;;;;;;-59
2022/03/20 01:41:48;;;;;;;572.81;519.90;;;;;;;;;;;;;-53
2022/03/20 01:44:47;;;;;;;571.04;518.15;;;;;;;;;;;;;-53
2022/03/20 01:47:49;;;;;;;575.39;522.18;;;;;;;;;;;;;-53
2022/03/20 01:50:47;;;;;;;574.61;521.58;;;;;;;;;;;;;-57
2022/03/20 01:53:48;;;;;;;572.75;519.72;;;;;;;;;;;;;-57
2022/03/20 01:56:48;;;;;;;569.63;516.83;;;;;;;;;;;;;-59
2022/03/20 01:59:47;;;;;;;569.11;516.27;;;;;;;;;;;;;-54
2022/03/20 02:02:48;;;;;;;571.27;518.50;;;;;;;;;;;;;-59
2022/03/20 02:05:47;;;;;;;579.11;525.81;;;;;;;;;;;;;-51
2022/03/20 02:08:47;;;;;;;576.79;523.67;;;;;;;;;;;;;-52
2022/03/20 02:11:48;;;;;;;578.36;525.14;;;;;;;;;;;;;-51
2022/03/20 02:14:48;;;;;;;571.08;518.13;;;;;;;;;;;;;-53
2022/03/20 02:17:47;;;;;;;572.65;519.66;;;;;;;;;;;;;-53
2022/03/20 02:20:48;;;;;;;570.27;517.35;;;;;;;;;;;;;-53
2022/03/20 02:23:48;;;;;;;574.71;521.61;;;;;;;;;;;;;-53
2022/03/20 02:26:48;;;;;;;573.76;520.64;;;;;;;;;;;;;-52
2022/03/20 02:29:47;;;;;;;570.39;517.40;;;;;;;;;;;;;-51
2022/03/20 02:32:48;;;;;;;568.67;515.75;;;;;;;;;;;;;-51
2022/03/20 02:35:48;;;;;;;570.42;517.41;;;;;;;;;;;;;-52
2022/03/20 02:38:48;;;;;;;569.37;516.52;;;;;;;;;;;;;-56
2022/03/20 02:41:47;;;;;;;572.33;519.29;;;;;;;;;;;;;-60
2022/03/20 02:44:47;;;;;;;570.75;517.75;;;;;;;;;;;;;-51
2022/03/20 02:47:48;;;;;;;574.53;521.49;;;;;;;;;;;;;-60
2022/03/20 02:50:48;;;;;;;570.67;517.74;;;;;;;;;;;;;-60
2022/03/20 02:53:47;;;;;;;572.29;519.33;;;;;;;;;;;;;-60
2022/03/20 02:56:47;;;;;;;566.69;514.05;;;;;;;;;;;;;-60
2022/03/20 02:59:47;;;;;;;568.99;516.13;;;;;;;;;;;;;-53
2022/03/20 03:02:47;;;;;;;569.59;516.69;;;;;;;;;;;;;-53
2022/03/20 03:05:48;;;;;;;565.83;513.15;;;;;;;;;;;;;-57
2022/03/20 03:11:47;;;;;;;569.66;516.79;;;;;;;;;;;;;-57
2022/03/20 03:17:48;;;;;;;568.30;515.58;;;;;;;;;;;;;-53
2022/03/20 03:20:47;;;;;;;569.76;516.91;;;;;;;;;;;;;-59
2022/03/20 03:23:47;;;;;;;566.76;514.01;;;;;;;;;;;;;-60
2022/03/20 03:26:48;;;;;;;567.03;514.20;;;;;;;;;;;;;-59
2022/03/20 03:29:48;;;;;;;568.82;516.05;;;;;;;;;;;;;-59
2022/03/20 03:32:47;;;;;;;565.16;512.33;;;;;;;;;;;;;-51
2022/03/20 03:35:53;;;;;;;563.96;511.27;;;;;;;;;;;;;-51
2022/03/20 03:38:48;;;;;;;566.93;514.11;;;;;;;;;;;;;-51
2022/03/20 03:41:50;;;;;;;566.25;513.63;;;;;;;;;;;;;-51
2022/03/20 03:44:48;;;;;;;560.27;507.81;;;;;;;;;;;;;-51
2022/03/20 03:47:47;;;;;;;564.04;511.39;;;;;;;;;;;;;-51
2022/03/20 03:50:47;;;;;;;562.39;509.87;;;;;;;;;;;;;-52
2022/03/20 03:53:48;;;;;;;563.31;510.69;;;;;;;;;;;;;-52
2022/03/20 03:56:47;;;;;;;562.03;509.41;;;;;;;;;;;;;-59
2022/03/20 03:59:48;;;;;;;563.93;511.22;;;;;;;;;;;;;-59
2022/03/20 04:02:48;;;;;;;563.75;511.12;;;;;;;;;;;;;-59
2022/03/20 04:05:47;;;;;;;564.13;511.51;;;;;;;;;;;;;-60
2022/03/20 04:08:48;;;;;;;563.75;511.02;;;;;;;;;;;;;-59
2022/03/20 04:11:48;;;;;;;553.38;501.12;;;;;;;;;;;;;-59
2022/03/20 04:14:48;;;;;;;554.50;502.18;;;;;;;;;;;;;-60
2022/03/20 04:17:47;;;;;;;557.01;504.57;;;;;;;;;;;;;-59
2022/03/20 04:20:47;;;;;;;559.15;506.55;;;;;;;;;;;;;-59
2022/03/20 04:23:50;;;;;;;557.84;505.34;;;;;;;;;;;;;-60
2022/03/20 04:26:47;;;;;;;561.42;508.73;;;;;;;;;;;;;-60
2022/03/20 04:29:48;;;;;;;555.53;503.11;;;;;;;;;;;;;-56
2022/03/20 04:32:47;;;;;;;560.11;507.49;;;;;;;;;;;;;-56
2022/03/20 04:35:47;;;;;;;560.11;507.55;;;;;;;;;;;;;-56
2022/03/20 04:38:47;;;;;;;560.95;508.29;;;;;;;;;;;;;-57
2022/03/20 04:41:47;;;;;;;562.63;509.93;;;;;;;;;;;;;-60
2022/03/20 04:44:47;;;;;;;563.71;511.00;;;;;;;;;;;;;-52
2022/03/20 04:59:47;;;;;;;557.57;505.06;;;;;;;;;;;;;-54
2022/03/20 05:02:47;;;;;;;556.79;504.46;;;;;;;;;;;;;-53
2022/03/20 05:05:47;;;;;;;554.83;502.44;;;;;;;;;;;;;-54
2022/03/20 05:08:47;;;;;;;551.70;499.41;;;;;;;;;;;;;-53
2022/03/20 05:14:47;;;;;;;552.36;500.06;;;;;;;;;;;;;-53
2022/03/20 05:17:47;;;;;;;553.13;500.81;;;;;;;;;;;;;-53
2022/03/20 05:20:48;;;;;;;557.25;504.75;;;;;;;;;;;;;-59
2022/03/20 05:23:47;;;;;;;554.03;501.67;;;;;;;;;;;;;-60
2022/03/20 05:26:47;;;;;;;555.47;503.01;;;;;;;;;;;;;-57
2022/03/20 05:29:48;;;;;;;550.95;498.79;;;;;;;;;;;;;-54
2022/03/20 05:32:47;;;;;;;551.83;499.53;;;;;;;;;;;;;-53
2022/03/20 05:35:47;;;;;;;551.73;499.49;;;;;;;;;;;;;-60
2022/03/20 05:38:47;;;;;;;547.85;495.55;;;;;;;;;;;;;-59
2022/03/20 05:41:51;;;;;;;555.11;502.75;;;;;;;;;;;;;-60
2022/03/20 05:44:47;;;;;;;554.25;501.75;;;;;;;;;;;;;-59
2022/03/20 05:47:47;;;;;;;551.53;499.17;;;;;;;;;;;;;-53
2022/03/20 05:50:49;;;;;;;553.65;501.20;;;;;;;;;;;;;-51
2022/03/20 05:53:47;;;;;;;548.72;496.51;;;;;;;;;;;;;-51
2022/03/20 05:59:48;;;;;;;553.28;500.85;;;;;;;;;;;;;-52
2022/03/20 06:02:47;;;;;;;553.07;500.74;;;;;;;;;;;;;-52
2022/03/20 06:05:48;;;;;;;551.10;498.90;;;;;;;;;;;;;-51
2022/03/20 06:08:49;;;;;;;555.87;503.44;;;;;;;;;;;;;-51
2022/03/20 06:11:48;;;;;;;554.81;502.47;;;;;;;;;;;;;-51
2022/03/20 06:14:48;;;;;;;556.93;504.40;;;;;;;;;;;;;-51
2022/03/20 06:17:47;;;;;;;552.86;500.56;;;;;;;;;;;;;-52
2022/03/20 06:20:47;;;;;;;552.26;499.98;;;;;;;;;;;;;-52
2022/03/20 06:23:47;;;;;;;555.81;503.47;;;;;;;;;;;;;-51
2022/03/20 06:26:47;;;;;;;552.94;500.59;;;;;;;;;;;;;-51
2022/03/20 06:29:47;;;;;;;556.73;504.33;;;;;;;;;;;;;-57
2022/03/20 06:32:47;;;;;;;558.13;505.72;;;;;;;;;;;;;-60
2022/03/20 06:35:47;;;;;;;559.32;506.83;;;;;;;;;;;;;-60
2022/03/20 06:38:47;;;;;;;560.58;507.91;;;;;;;;;;;;;-54
2022/03/20 06:41:48;;;;;;;556.41;504.05;;;;;;;;;;;;;-60
2022/03/20 06:44:49;;;;;;;556.81;504.39;;;;;;;;;;;;;-60
2022/03/20 06:47:48;;;;;;;559.14;506.60;;;;;;;;;;;;;-59
2022/03/20 06:50:48;;;;;;;562.63;509.98;;;;;;;;;;;;;-53
2022/03/20 06:53:47;;;;;;;559.43;506.93;;;;;;;;;;;;;-53
2022/03/20 06:56:47;;;;;;;558.93;506.42;;;;;;;;;;;;;-56
2022/03/20 06:59:47;;;;;;;558.91;506.40;;;;;;;;;;;;;-57
2022/03/20 07:02:48;;;;;;;559.83;507.31;;;;;;;;;;;;;-57
2022/03/20 07:05:47;;;;;;;560.30;507.87;;;;;;;;;;;;;-56
2022/03/20 07:08:47;;;;;;;557.96;505.63;;;;;;;;;;;;;-56
2022/03/20 07:11:47;;;;;;;555.36;502.97;;;;;;;;;;;;;-60
2022/03/20 07:14:47;;;;;;;557.85;505.39;;;;;;;;;;;;;-57
2022/03/20 07:17:48;;;;;;;559.19;506.68;;;;;;;;;;;;;-56
2022/03/20 07:20:47;;;;;;;557.13;504.66;;;;;;;;;;;;;-51
2022/03/20 07:23:48;;;;;;;557.06;504.53;;;;;;;;;;;;;-51
2022/03/20 07:29:48;;;;;;;556.35;503.94;;;;;;;;;;;;;-52
2022/03/20 07:32:47;;;;;;;560.10;507.57;;;;;;;;;;;;;-56
2022/03/20 07:35:47;;;;;;;560.67;508.18;;;;;;;;;;;;;-56
2022/03/20 07:38:50;;;;;;;560.84;508.33;;;;;;;;;;;;;-56
2022/03/20 07:41:48;;;;;;;560.46;507.81;;;;;;;;;;;;;-51
2022/03/20 07:44:47;;;;;;;559.79;507.35;;;;;;;;;;;;;-56
2022/03/20 07:47:47;;;;;;;554.43;502.17;;;;;;;;;;;;;-56
2022/03/20 07:50:48;;;;;;;556.45;503.97;;;;;;;;;;;;;-56
2022/03/20 07:53:48;;;;;;;552.17;500.01;;;;;;;;;;;;;-57
2022/03/20 07:56:48;;;;;;;558.34;505.87;;;;;;;;;;;;;-54
2022/03/20 07:59:47;;;;;;;562.38;509.69;;;;;;;;;;;;;-51
2022/03/20 08:02:47;;;;;;;565.14;512.35;;;;;;;;;;;;;-56
2022/03/20 08:05:47;;;;;;;555.91;503.47;;;;;;;;;;;;;-51
2022/03/20 08:08:47;;;;;;;558.18;505.75;;;;;;;;;;;;;-54
2022/03/20 08:11:47;;;;;;;554.92;502.51;;;;;;;;;;;;;-54
2022/03/20 08:14:48;;;;;;;557.96;504.90;;;;;;;;;;;;;-54
2022/03/20 08:17:48;;;;;;;554.07;501.33;;;;;;;;;;;;;-54
2022/03/20 08:20:47;;;;;;;549.03;496.48;;;;;;;;;;;;;-54
2022/03/20 08:23:47;;;;;;;544.27;491.94;;;;;;;;;;;;;-54
2022/03/20 08:26:47;;;;;;;545.45;492.89;;;;;;;;;;;;;-54
2022/03/20 08:29:47;;;;;;;548.78;496.09;;;;;;;;;;;;;-51
2022/03/20 08:32:48;;;;;;;536.82;484.51;;;;;;;;;;;;;-51
2022/03/20 08:35:47;;;;;;;543.55;491.19;;;;;;;;;;;;;-54
2022/03/20 08:38:47;;;;;;;541.61;489.49;;;;;;;;;;;;;-54
2022/03/20 08:41:47;;;;;;;545.30;492.95;;;;;;;;;;;;;-51
2022/03/20 08:44:50;;;;;;;541.19;489.04;;;;;;;;;;;;;-51
2022/03/20 08:47:47;;;;;;;536.51;484.48;;;;;;;;;;;;;-51
2022/03/20 08:50:48;;;;;;;543.37;491.19;;;;;;;;;;;;;-59
2022/03/20 08:53:48;;;;;;;540.14;488.07;;;;;;;;;;;;;-56
2022/03/20 08:56:48;;;;;;;541.35;489.17;;;;;;;;;;;;;-59
2022/03/20 08:59:49;;;;;;;544.79;492.53;;;;;;;;;;;;;-59
2022/03/20 09:02:47;;;;;;;544.53;491.93;;;;;;;;;;;;;-60
2022/03/20 09:05:47;;;;;;;546.22;494.04;;;;;;;;;;;;;-53
2022/03/20 09:08:47;;;;;;;544.42;492.27;;;;;;;;;;;;;-54
2022/03/20 09:11:47;;;;;;;544.33;492.15;;;;;;;;;;;;;-60
2022/03/20 09:14:48;;;;;;;546.36;494.12;;;;;;;;;;;;;-59
2022/03/20 09:20:47;;;;;;;546.73;494.35;;;;;;;;;;;;;-56
2022/03/20 09:23:48;;;;;;;545.24;493.01;;;;;;;;;;;;;-56
2022/03/20 09:26:47;;;;;;;542.95;491.05;;;;;;;;;;;;;-56
2022/03/20 09:29:47;;;;;;;542.89;490.91;;;;;;;;;;;;;-56
2022/03/20 09:32:48;;;;;;;536.95;485.19;;;;;;;;;;;;;-53
2022/03/20 09:35:47;;;;;;;533.85;482.01;;;;;;;;;;;;;-55
2022/03/20 09:38:47;;;;;;;539.62;487.46;;;;;;;;;;;;;-54
2022/03/20 09:41:47;;;;;;;537.47;485.65;;;;;;;;;;;;;-51
2022/03/20 09:44:48;;;;;;;536.84;485.00;;;;;;;;;;;;;-50
2022/03/20 09:48:00;;;;;;;539.67;487.68;;;;;;;;;;;;;-51
2022/03/20 09:50:47;;;;;;;543.49;491.60;;;;;;;;;;;;;-53
2022/03/20 09:53:47;;;;;;;542.27;490.31;;;;;;;;;;;;;-59
2022/03/20 09:56:47;;;;;;;549.01;496.93;;;;;;;;;;;;;-64
2022/03/20 09:59:48;;;;;;;550.64;498.43;;;;;;;;;;;;;-60
2022/03/20 10:02:47;;;;;;;549.66;497.43;;;;;;;;;;;;;-61
2022/03/20 10:05:47;;;;;;;558.65;506.03;;;;;;;;;;;;;-56
2022/03/20 10:08:47;;;;;;;560.86;508.04;;;;;;;;;;;;;-53
2022/03/20 10:11:47;;;;;;;557.36;504.80;;;;;;;;;;;;;-52
2022/03/20 10:14:49;;;;;;;560.63;508.03;;;;;;;;;;;;;-62
2022/03/20 10:17:47;;;;;;;560.13;507.47;;;;;;;;;;;;;-55
2022/03/20 10:20:47;;;;;;;564.19;511.41;;;;;;;;;;;;;-58
2022/03/20 10:23:47;;;;;;;566.27;513.50;;;;;;;;;;;;;-58
2022/03/20 10:26:47;;;;;;;568.99;516.19;;;;;;;;;;;;;-57
2022/03/20 10:29:47;;;;;;;579.49;526.10;;;;;;;;;;;;;-58
2022/03/20 10:32:47;;;;;;;576.71;523.47;;;;;;;;;;;;;-59
2022/03/20 10:35:47;;;;;;;585.36;531.75;;;;;;;;;;;;;-63
2022/03/20 10:38:47;;;;;;;583.96;530.39;;;;;;;;;;;;;-57
2022/03/20 10:41:47;;;;;;;588.16;534.33;;;;;;;;;;;;;-52
2022/03/20 10:44:47;;;;;;;588.06;534.49;;;;;;;;;;;;;-52
2022/03/20 10:47:47;;;;;;;588.67;534.85;;;;;;;;;;;;;-62
2022/03/20 10:50:48;;;;;;;588.15;534.56;;;;;;;;;;;;;-56
2022/03/20 10:53:47;;;;;;;593.15;539.36;;;;;;;;;;;;;-61
2022/03/20 10:56:47;;;;;;;596.10;542.03;;;;;;;;;;;;;-56
2022/03/20 10:59:47;;;;;;;593.65;539.84;;;;;;;;;;;;;-56
2022/03/20 11:02:47;;;;;;;598.22;544.13;;;;;;;;;;;;;-58
2022/03/20 11:05:47;;;;;;;598.04;544.08;;;;;;;;;;;;;-55
2022/03/20 11:08:47;;;;;;;598.79;544.76;;;;;;;;;;;;;-52
2022/03/20 11:11:47;;;;;;;603.54;549.35;;;;;;;;;;;;;-61
2022/03/20 11:14:47;;;;;;;600.57;546.53;;;;;;;;;;;;;-56
2022/03/20 11:17:47;;;;;;;609.60;555.08;;;;;;;;;;;;;-53
2022/03/20 11:20:47;;;;;;;607.11;552.77;;;;;;;;;;;;;-52
2022/03/20 11:23:47;;;;;;;608.35;554.01;;;;;;;;;;;;;-60
2022/03/20 11:26:47;;;;;;;610.53;555.91;;;;;;;;;;;;;-58
2022/03/20 11:29:47;;;;;;;610.21;555.71;;;;;;;;;;;;;-60
2022/03/20 11:32:48;;;;;;;608.05;553.47;;;;;;;;;;;;;-58
2022/03/20 11:35:47;;;;;;;601.97;547.79;;;;;;;;;;;;;-60
2022/03/20 11:38:47;;;;;;;604.53;550.32;;;;;;;;;;;;;-59
2022/03/20 11:41:47;;;;;;;602.67;548.46;;;;;;;;;;;;;-59
2022/03/20 11:44:47;;;;;;;604.63;550.31;;;;;;;;;;;;;-59
2022/03/20 11:47:48;;;;;;;605.42;551.13;;;;;;;;;;;;;-59
2022/03/20 11:50:48;;;;;;;602.31;548.07;;;;;;;;;;;;;-59
2022/03/20 11:53:47;;;;;;;600.87;546.80;;;;;;;;;;;;;-59
2022/03/20 11:56:48;;;;;;;605.01;550.78;;;;;;;;;;;;;-59
2022/03/20 11:59:47;;;;;;;605.81;551.37;;;;;;;;;;;;;-59
2022/03/20 12:02:48;;;;;;;601.46;547.41;;;;;;;;;;;;;-59
2022/03/20 12:06:47;;;;;;;592.23;538.47;;;;;;;;;;;;;-59
2022/03/20 12:09:47;;;;;;;597.30;543.27;;;;;;;;;;;;;-58
2022/03/20 12:12:47;;;;;;;603.80;549.72;;;;;;;;;;;;;-57
2022/03/20 12:15:47;;;;;;;598.08;544.29;;;;;;;;;;;;;-60
2022/03/20 12:18:48;;;;;;;605.51;551.27;;;;;;;;;;;;;-60
2022/03/20 12:21:47;;;;;;;606.73;552.50;;;;;;;;;;;;;-60
2022/03/20 12:24:49;;;;;;;604.45;550.39;;;;;;;;;;;;;-60
2022/03/20 12:27:48;;;;;;;603.46;549.33;;;;;;;;;;;;;-60
2022/03/20 12:30:47;;;;;;;604.42;550.29;;;;;;;;;;;;;-60
2022/03/20 12:33:47;;;;;;;603.36;549.29;;;;;;;;;;;;;-60
2022/03/20 12:36:47;;;;;;;608.74;554.32;;;;;;;;;;;;;-59
2022/03/20 12:39:47;;;;;;;603.63;549.53;;;;;;;;;;;;;-57
2022/03/20 12:42:47;;;;;;;606.63;552.05;;;;;;;;;;;;;-62
2022/03/20 12:45:47;;;;;;;610.25;555.89;;;;;;;;;;;;;-58
2022/03/20 12:48:48;;;;;;;616.12;561.40;;;;;;;;;;;;;-51
2022/03/20 12:51:47;;;;;;;615.53;560.91;;;;;;;;;;;;;-59
2022/03/20 12:54:47;;;;;;;615.88;561.24;;;;;;;;;;;;;-61
2022/03/20 12:57:47;;;;;;;616.24;561.52;;;;;;;;;;;;;-58
2022/03/20 13:00:47;;;;;;;615.73;561.15;;;;;;;;;;;;;-59
2022/03/20 13:03:48;;;;;;;616.73;561.79;;;;;;;;;;;;;-56
2022/03/20 13:06:47;;;;;;;625.99;570.80;;;;;;;;;;;;;-55
2022/03/20 13:09:47;;;;;;;627.79;572.54;;;;;;;;;;;;;-55
2022/03/20 13:12:47;;;;;;;624.60;569.37;;;;;;;;;;;;;-57
2022/03/20 13:15:47;;;;;;;625.88;570.72;;;;;;;;;;;;;-58
2022/03/20 13:18:48;;;;;;;629.40;574.09;;;;;;;;;;;;;-59
2022/03/20 13:21:47;;;;;;;631.34;575.91;;;;;;;;;;;;;-59
2022/03/20 13:24:49;;;;;;;628.37;573.11;;;;;;;;;;;;;-59
2022/03/20 13:27:48;;;;;;;625.01;569.85;;;;;;;;;;;;;-60
2022/03/20 13:30:48;;;;;;;632.77;577.07;;;;;;;;;;;;;-57
2022/03/20 13:33:51;;;;;;;627.93;572.63;;;;;;;;;;;;;-57
2022/03/20 13:36:48;;;;;;;624.07;568.83;;;;;;;;;;;;;-57
2022/03/20 13:39:47;;;;;;;622.89;567.56;;;;;;;;;;;;;-59
2022/03/20 13:42:47;;;;;;;620.44;565.35;;;;;;;;;;;;;-52
2022/03/20 13:45:48;;;;;;;622.11;567.01;;;;;;;;;;;;;-60
2022/03/20 13:48:47;;;;;;;623.59;567.35;;;;;;;;;;;;;-57
2022/03/20 13:51:49;;;;;;;619.07;564.09;;;;;;;;;;;;;-58
2022/03/20 13:54:47;;;;;;;624.15;568.75;;;;;;;;;;;;;-59
2022/03/20 13:57:48;;;;;;;625.43;570.41;;;;;;;;;;;;;-54
2022/03/20 14:00:49;;;;;;;629.63;574.25;;;;;;;;;;;;;-56
2022/03/20 14:03:48;;;;;;;621.79;566.81;;;;;;;;;;;;;-58
2022/03/20 14:06:49;;;;;;;622.92;567.71;;;;;;;;;;;;;-56
2022/03/20 14:09:47;;;;;;;625.36;570.13;;;;;;;;;;;;;-58
2022/03/20 14:12:47;;;;;;;625.53;570.24;;;;;;;;;;;;;-57
2022/03/20 14:15:48;;;;;;;626.13;570.81;;;;;;;;;;;;;-53
2022/03/20 14:18:47;;;;;;;629.96;574.73;;;;;;;;;;;;;-53
2022/03/20 14:21:47;;;;;;;623.31;568.23;;;;;;;;;;;;;-57
2022/03/20 14:24:57;;;;;;;625.65;570.55;;;;;;;;;;;;;-57
2022/03/20 14:27:47;;;;;;;625.43;570.21;;;;;;;;;;;;;-57
2022/03/20 14:39:48;;;;;;;632.16;576.67;;;;;;;;;;;;;-54
2022/03/20 14:42:49;;;;;;;625.33;570.21;;;;;;;;;;;;;-54
2022/03/20 14:45:47;;;;;;;626.75;571.45;;;;;;;;;;;;;-55
2022/03/20 14:48:47;;;;;;;632.05;576.56;;;;;;;;;;;;;-57
2022/03/20 14:51:47;;;;;;;634.04;578.63;;;;;;;;;;;;;-58
2022/03/20 14:54:47;;;;;;;630.14;574.86;;;;;;;;;;;;;-54
2022/03/20 14:57:48;;;;;;;629.35;574.06;;;;;;;;;;;;;-54
2022/03/20 15:00:47;;;;;;;634.06;578.59;;;;;;;;;;;;;-54
2022/03/20 15:03:47;;;;;;;630.41;574.53;;;;;;;;;;;;;-64
2022/03/20 15:06:49;;;;;;;624.76;569.41;;;;;;;;;;;;;-63
2022/03/20 15:13:47;;;;;;;624.60;569.21;;;;;;;;;;;;;-52
2022/03/20 15:16:47;;;;;;;628.56;572.93;;;;;;;;;;;;;-60
2022/03/20 15:19:47;;;;;;;634.98;579.17;;;;;;;;;;;;;-51
2022/03/20 15:22:47;;;;;;;635.49;579.67;;;;;;;;;;;;;-51
2022/03/20 15:25:47;;;;;;;629.46;574.05;;;;;;;;;;;;;-53
2022/03/20 15:28:47;;;;;;;627.36;572.07;;;;;;;;;;;;;-53
2022/03/20 15:31:48;;;;;;;628.31;572.93;;;;;;;;;;;;;-53
2022/03/20 15:34:47;;;;;;;630.36;574.91;;;;;;;;;;;;;-64
2022/03/20 15:37:47;;;;;;;632.47;576.95;;;;;;;;;;;;;-54
2022/03/20 15:40:47;;;;;;;630.67;575.24;;;;;;;;;;;;;-57
2022/03/20 15:43:47;;;;;;;632.44;577.01;;;;;;;;;;;;;-58
2022/03/20 15:46:48;;;;;;;635.09;578.95;;;;;;;;;;;;;-55
2022/03/20 15:49:48;;;;;;;629.14;573.51;;;;;;;;;;;;;-55
2022/03/20 15:52:48;;;;;;;633.73;578.05;;;;;;;;;;;;;-54
2022/03/20 15:55:47;;;;;;;635.04;579.21;;;;;;;;;;;;;-57
2022/03/20 15:58:47;;;;;;;638.81;582.90;;;;;;;;;;;;;-62
2022/03/20 16:01:48;;;;;;;641.64;585.66;;;;;;;;;;;;;-58
2022/03/20 16:04:47;;;;;;;639.09;583.37;;;;;;;;;;;;;-57
2022/03/20 16:07:48;;;;;;;638.87;583.05;;;;;;;;;;;;;-55
2022/03/20 16:10:47;;;;;;;639.80;584.14;;;;;;;;;;;;;-58
2022/03/20 16:13:47;;;;;;;640.57;584.64;;;;;;;;;;;;;-58
2022/03/20 16:16:47;;;;;;;641.63;585.80;;;;;;;;;;;;;-60
2022/03/20 16:19:47;;;;;;;644.77;588.69;;;;;;;;;;;;;-57
2022/03/20 16:28:47;;;;;;;645.31;589.23;;;;;;;;;;;;;-55
2022/03/20 16:31:47;;;;;;;644.53;588.55;;;;;;;;;;;;;-58
2022/03/20 16:34:48;;;;;;;648.30;592.27;;;;;;;;;;;;;-56
2022/03/20 16:37:47;;;;;;;647.45;591.25;;;;;;;;;;;;;-55
2022/03/20 16:40:47;;;;;;;648.77;592.46;;;;;;;;;;;;;-57
2022/03/20 16:43:47;;;;;;;647.15;590.77;;;;;;;;;;;;;-61
2022/03/20 16:46:47;;;;;;;645.14;589.11;;;;;;;;;;;;;-57
2022/03/20 16:49:47;;;;;;;646.39;589.88;;;;;;;;;;;;;-59
2022/03/20 16:52:48;;;;;;;652.83;596.13;;;;;;;;;;;;;-57
2022/03/20 16:55:48;;;;;;;647.12;590.85;;;;;;;;;;;;;-52
2022/03/20 16:58:49;;;;;;;650.84;594.44;;;;;;;;;;;;;-63
2022/03/20 17:01:47;;;;;;;653.62;597.11;;;;;;;;;;;;;-54
2022/03/20 17:04:47;;;;;;;649.45;593.25;;;;;;;;;;;;;-56
2022/03/20 17:07:47;;;;;;;649.96;593.62;;;;;;;;;;;;;-54
2022/03/20 17:10:47;;;;;;;650.91;594.41;;;;;;;;;;;;;-58
2022/03/20 17:13:47;;;;;;;651.92;595.62;;;;;;;;;;;;;-59
2022/03/20 17:16:47;;;;;;;652.26;595.67;;;;;;;;;;;;;-60
2022/03/20 17:19:47;;;;;;;651.34;594.96;;;;;;;;;;;;;-55
2022/03/20 17:22:48;;;;;;;655.08;598.64;;;;;;;;;;;;;-52
2022/03/20 17:25:47;;;;;;;656.01;599.38;;;;;;;;;;;;;-53
2022/03/20 17:28:47;;;;;;;649.65;593.43;;;;;;;;;;;;;-60
2022/03/20 17:31:48;;;;;;;655.71;599.25;;;;;;;;;;;;;-58
2022/03/20 17:34:47;;;;;;;655.35;598.88;;;;;;;;;;;;;-56
2022/03/20 17:37:47;;;;;;;654.68;598.37;;;;;;;;;;;;;-55
2022/03/20 17:40:47;;;;;;;657.69;601.25;;;;;;;;;;;;;-59
2022/03/20 17:43:48;;;;;;;660.46;603.40;;;;;;;;;;;;;-59
2022/03/20 17:46:47;;;;;;;657.75;601.27;;;;;;;;;;;;;-56
2022/03/20 17:49:47;;;;;;;664.93;608.20;;;;;;;;;;;;;-67
2022/03/20 17:52:47;;;;;;;664.24;607.20;;;;;;;;;;;;;-53
2022/03/20 17:55:48;;;;;;;660.45;603.90;;;;;;;;;;;;;-58
2022/03/20 17:58:47;;;;;;;663.33;606.69;;;;;;;;;;;;;-65
2022/03/20 18:01:47;;;;;;;661.21;604.63;;;;;;;;;;;;;-62
2022/03/20 18:07:51;;;;;;;659.88;603.10;;;;;;;;;;;;;-54
2022/03/20 18:10:51;;;;;;;656.58;600.01;;;;;;;;;;;;;-56
2022/03/20 18:13:53;;;;;;;657.95;601.33;;;;;;;;;;;;;-56
2022/03/20 18:16:47;;;;;;;658.80;602.27;;;;;;;;;;;;;-62
2022/03/20 18:19:47;;;;;;;658.36;601.83;;;;;;;;;;;;;-52
2022/03/20 18:22:48;;;;;;;654.46;598.21;;;;;;;;;;;;;-52
2022/03/20 18:25:47;;;;;;;655.95;599.53;;;;;;;;;;;;;-53
2022/03/20 18:28:47;;;;;;;655.88;599.51;;;;;;;;;;;;;-57
2022/03/20 18:31:47;;;;;;;652.52;596.23;;;;;;;;;;;;;-58
2022/03/20 18:34:48;;;;;;;656.43;599.99;;;;;;;;;;;;;-56
2022/03/20 18:37:47;;;;;;;659.96;603.42;;;;;;;;;;;;;-60
2022/03/20 18:40:48;;;;;;;657.84;601.15;;;;;;;;;;;;;-61
2022/03/20 18:43:47;;;;;;;661.84;604.99;;;;;;;;;;;;;-49
2022/03/20 18:46:47;;;;;;;658.29;601.72;;;;;;;;;;;;;-49
2022/03/20 18:49:47;;;;;;;661.53;604.95;;;;;;;;;;;;;-61
2022/03/20 18:52:48;;;;;;;661.35;604.65;;;;;;;;;;;;;-60
2022/03/20 18:55:48;;;;;;;658.51;601.93;;;;;;;;;;;;;-49
2022/03/20 18:58:47;;;;;;;665.19;608.21;;;;;;;;;;;;;-54
2022/03/20 19:01:47;;;;;;;660.69;604.00;;;;;;;;;;;;;-54
2022/03/20 19:04:47;;;;;;;660.17;603.49;;;;;;;;;;;;;-54
2022/03/20 19:07:49;;;;;;;658.76;602.18;;;;;;;;;;;;;-51
2022/03/20 19:10:47;;;;;;;660.18;603.53;;;;;;;;;;;;;-59
2022/03/20 19:13:47;;;;;;;657.15;600.61;;;;;;;;;;;;;-60
2022/03/20 19:16:47;;;;;;;660.63;603.94;;;;;;;;;;;;;-60
2022/03/20 19:19:47;;;;;;;658.53;601.92;;;;;;;;;;;;;-60
2022/03/20 19:22:48;;;;;;;662.93;606.17;;;;;;;;;;;;;-50
2022/03/20 19:25:47;;;;;;;661.36;604.67;;;;;;;;;;;;;-49
2022/03/20 19:28:48;;;;;;;662.51;605.71;;;;;;;;;;;;;-60
2022/03/20 19:31:49;;;;;;;662.50;605.77;;;;;;;;;;;;;-52
2022/03/20 19:40:47;;;;;;;665.05;608.19;;;;;;;;;;;;;-55
2022/03/20 19:43:47;;;;;;;662.90;606.02;;;;;;;;;;;;;-53
2022/03/20 19:46:47;;;;;;;665.76;608.90;;;;;;;;;;;;;-54
2022/03/20 19:49:49;;;;;;;663.55;606.80;;;;;;;;;;;;;-56
2022/03/20 19:52:48;;;;;;;664.19;607.23;;;;;;;;;;;;;-56
2022/03/20 19:55:47;;;;;;;666.96;609.77;;;;;;;;;;;;;-57
2022/03/20 19:58:47;;;;;;;656.61;600.14;;;;;;;;;;;;;-54
2022/03/20 20:01:47;;;;;;;655.24;598.89;;;;;;;;;;;;;-56
2022/03/20 20:04:47;;;;;;;650.31;593.67;;;;;;;;;;;;;-66
2022/03/20 20:07:47;;;;;;;653.03;596.59;;;;;;;;;;;;;-58
2022/03/20 20:10:47;;;;;;;658.36;601.65;;;;;;;;;;;;;-61
2022/03/20 20:16:47;;;;;;;657.15;600.48;;;;;;;;;;;;;-63
2022/03/20 20:19:47;;;;;;;655.04;598.51;;;;;;;;;;;;;-59
2022/03/20 20:22:47;;;;;;;652.73;596.33;;;;;;;;;;;;;-58
2022/03/20 20:25:47;;;;;;;655.55;598.77;;;;;;;;;;;;;-59
2022/03/20 20:28:47;;;;;;;651.69;595.48;;;;;;;;;;;;;-51
2022/03/20 20:31:48;;;;;;;656.47;600.04;;;;;;;;;;;;;-54
2022/03/20 20:34:47;;;;;;;653.23;596.73;;;;;;;;;;;;;-57
2022/03/20 20:37:47;;;;;;;656.47;599.98;;;;;;;;;;;;;-59
2022/03/20 20:40:47;;;;;;;655.31;598.59;;;;;;;;;;;;;-58
2022/03/20 20:43:47;;;;;;;654.23;597.79;;;;;;;;;;;;;-53
2022/03/20 20:46:47;;;;;;;655.79;599.41;;;;;;;;;;;;;-60
2022/03/20 20:49:47;;;;;;;657.78;601.07;;;;;;;;;;;;;-60
2022/03/20 20:52:47;;;;;;;655.86;599.42;;;;;;;;;;;;;-54
2022/03/20 20:55:47;;;;;;;651.40;595.03;;;;;;;;;;;;;-60
2022/03/20 20:58:50;;;;;;;655.50;598.87;;;;;;;;;;;;;-60
2022/03/20 21:01:47;;;;;;;649.10;592.80;;;;;;;;;;;;;-52
2022/03/20 21:04:47;;;;;;;653.24;596.91;;;;;;;;;;;;;-56
2022/03/20 21:11:01;;;;;;;651.85;595.20;;;;;;;;;;;;;-63
2022/03/20 21:13:47;;;;;;;649.83;593.48;;;;;;;;;;;;;-52
2022/03/20 21:16:49;;;;;;;649.77;593.50;;;;;;;;;;;;;-54
2022/03/20 21:19:49;;;;;;;643.18;587.11;;;;;;;;;;;;;-54
2022/03/20 21:22:47;;;;;;;642.65;586.63;;;;;;;;;;;;;-51
2022/03/20 21:25:47;;;;;;;640.51;584.73;;;;;;;;;;;;;-53
2022/03/20 21:28:47;;;;;;;638.99;583.22;;;;;;;;;;;;;-51
2022/03/20 21:31:48;;;;;;;633.09;577.63;;;;;;;;;;;;;-54
2022/03/20 21:34:47;;;;;;;637.89;582.09;;;;;;;;;;;;;-54
2022/03/20 21:37:47;;;;;;;631.66;575.98;;;;;;;;;;;;;-54
2022/03/20 21:40:47;;;;;;;629.15;573.57;;;;;;;;;;;;;-54
2022/03/20 21:43:47;;;;;;;625.01;569.71;;;;;;;;;;;;;-58
2022/03/20 21:46:47;;;;;;;627.85;572.48;;;;;;;;;;;;;-52
2022/03/20 21:49:47;;;;;;;628.89;573.54;;;;;;;;;;;;;-52
2022/03/20 21:52:47;;;;;;;625.22;570.07;;;;;;;;;;;;;-52
2022/03/20 21:55:49;;;;;;;624.85;569.75;;;;;;;;;;;;;-60
2022/03/20 21:58:47;;;;;;;623.17;568.10;;;;;;;;;;;;;-58
2022/03/20 22:01:47;;;;;;;624.65;569.55;;;;;;;;;;;;;-60
2022/03/20 22:04:47;;;;;;;624.49;569.30;;;;;;;;;;;;;-58
2022/03/20 22:07:48;;;;;;;626.48;571.27;;;;;;;;;;;;;-58
2022/03/20 22:10:48;;;;;;;618.65;563.71;;;;;;;;;;;;;-53
2022/03/20 22:13:47;;;;;;;620.65;565.64;;;;;;;;;;;;;-51
2022/03/20 22:16:47;;;;;;;613.99;559.23;;;;;;;;;;;;;-52